Latest Weather Observations for Albany Airport

IDW60801

Issued at 4:02 pm WST Thursday 2 July 2015 (issued every 30 minutes, with the page automatically refreshed every 10 minutes)

About weather observations | Map of weather stations | Latest weather observations for WA | Other Formats
Station Details ID: 009999 Name: ALBANY AIRPORT Lat: -34.94 Lon: 117.82 Height: 68.4 m
Data from the previous 72 hours. | See also: Recent months at Albany Airport
Date/Time
WST
Temp
°C
App
Temp
°C
Dew
Point
Rel
Hum
%
Delta-T
°C
Wind Press
QNH
hPa
Press
MSL
hPa
Rain
since 9 am
mm
Dir
 
Spd
km/h
Gust
km/h
Spd
kts
Gust
kts
02/04:00pm 16.8 16.2 12.3 75 2.5 N 7 9 4 5 1020.6 - 0.4
02/03:30pm 17.0 15.4 11.7 71 2.9 N 11 13 6 7 1020.4 - 0.4
02/03:00pm 17.1 15.0 11.0 67 3.3 N 13 17 7 9 1020.6 1020.8 0.4
02/02:30pm 17.8 16.3 12.0 69 3.2 N 11 15 6 8 1020.5 - 0.4
02/02:00pm 17.8 15.6 10.7 63 3.8 N 13 17 7 9 1020.6 - 0.4
02/01:30pm 17.7 15.2 11.2 65 3.5 N 15 19 8 10 1020.7 - 0.4
02/01:00pm 16.8 16.2 13.6 81 1.8 E 9 13 5 7 1020.9 - 0.4
02/12:30pm 15.8 15.6 13.5 86 1.3 ENE 7 9 4 5 1021.6 - 0.4
02/12:00pm 15.3 15.0 13.3 88 1.1 ENE 7 9 4 5 1022.1 1022.3 0.4
02/11:30am 14.8 14.3 12.8 88 1.1 ENE 7 9 4 5 1022.5 - 0.4
02/10:30am 13.2 12.2 12.3 94 0.5 NE 9 13 5 7 1023.3 - 0.4
02/10:00am 12.7 11.2 11.8 94 0.5 NE 11 13 6 7 1023.3 - 0.4
02/09:30am 12.4 11.2 11.6 95 0.4 NE 9 11 5 6 1023.4 - 0.2
02/09:00am 12.4 11.5 11.5 94 0.5 ENE 7 9 4 5 1023.3 1023.5 1.2
02/08:30am 12.2 10.9 11.1 93 0.6 NE 9 11 5 6 1023.5 - 1.2
02/08:20am 12.1 10.8 11.1 94 0.5 NE 9 11 5 6 1023.5 - 1.2
02/08:03am 12.0 10.2 11.0 94 0.5 N 11 13 6 7 1023.6 - 1.0
02/08:00am 12.1 10.3 10.9 92 0.6 N 11 13 6 7 1023.6 - 0.8
02/07:30am 12.5 10.2 10.4 87 1.1 N 13 19 7 10 1023.5 - 0.8
02/07:00am 12.6 10.4 10.7 88 1.0 N 13 15 7 8 1023.7 - 0.6
02/06:30am 13.5 9.9 10.0 79 1.8 N 19 26 10 14 1023.6 - 0.4
02/05:30am 12.9 11.5 11.0 88 1.0 N 9 11 5 6 1023.0 - 0.0
02/05:00am 13.1 11.7 11.0 87 1.1 N 9 11 5 6 1022.8 - 0.0
02/04:30am 13.3 11.6 11.2 87 1.1 N 11 13 6 7 1022.5 - 0.0
02/04:00am 13.2 12.3 12.5 95 0.4 NNE 9 11 5 6 1022.5 - 0.0
02/03:30am 13.3 12.4 12.6 95 0.4 N 9 11 5 6 1022.7 - 0.0
02/03:00am 13.2 12.3 12.6 96 0.3 NNE 9 11 5 6 1023.0 1023.2 0.0
02/02:30am 13.5 12.7 12.8 95 0.4 NE 9 9 5 5 1023.2 - 0.0
02/02:00am 13.9 13.3 13.4 97 0.3 NNE 9 11 5 6 1023.3 - 0.0
02/01:30am 14.5 13.6 13.8 96 0.4 NE 11 13 6 7 1023.3 - 0.0
02/01:00am 14.5 13.2 13.8 96 0.4 ENE 13 15 7 8 1023.3 - 0.0
02/12:30am 14.2 13.3 13.8 97 0.2 ENE 11 13 6 7 1023.6 - 0.0
02/12:00am 14.2 13.7 13.8 97 0.2 NE 9 9 5 5 1024.1 1024.3 0.0
 
Date/Time
WST
Temp
°C
App
Temp
°C
Dew
Point
Rel
Hum
%
Delta-T
°C
Wind Press
QNH
hPa
Press
MSL
hPa
Rain
since 9 am
mm
Dir
 
Spd
km/h
Gust
km/h
Spd
kts
Gust
kts
01/11:30pm 14.3 13.8 13.9 97 0.2 NE 9 11 5 6 1024.4 - 0.0
01/11:06pm 13.8 12.8 13.4 97 0.2 ENE 11 13 6 7 1024.6 - 0.0
01/11:00pm 14.2 13.7 13.8 97 0.2 ENE 9 11 5 6 1024.5 - 0.0
01/10:46pm 14.2 14.0 13.7 97 0.3 ENE 7 9 4 5 1024.5 - 0.0
01/10:30pm 14.5 14.4 14.0 97 0.3 E 7 9 4 5 1024.4 - 0.0
01/10:00pm 15.0 14.7 14.3 96 0.4 ENE 9 9 5 5 1024.3 - 0.0
01/09:30pm 15.2 14.5 14.3 94 0.5 ENE 11 13 6 7 1024.4 - 0.0
01/09:00pm 15.5 14.8 14.4 93 0.6 ENE 11 13 6 7 1024.4 1024.6 0.0
01/08:30pm 15.5 14.8 14.4 93 0.6 ENE 11 13 6 7 1024.5 - 0.0
01/08:00pm 15.5 14.8 14.3 92 0.7 ENE 11 13 6 7 1024.6 - 0.0
01/07:30pm 15.7 15.0 14.3 91 0.8 ENE 11 13 6 7 1024.8 - 0.0
01/07:00pm 15.6 15.3 14.4 93 0.7 ENE 9 13 5 7 1024.6 - 0.0
01/06:30pm 15.9 14.9 14.5 91 0.8 ENE 13 15 7 8 1024.2 - 0.0
01/06:00pm 16.0 15.3 14.4 90 0.9 E 11 13 6 7 1024.0 1024.2 0.0
01/05:30pm 16.3 15.6 14.2 87 1.2 E 11 15 6 8 1023.9 - 0.0
01/05:00pm 16.7 15.5 13.9 83 1.6 E 13 19 7 10 1023.8 - 0.0
01/04:30pm 16.7 15.6 14.4 86 1.3 ESE 13 15 7 8 1023.2 - 0.0
01/04:00pm 17.7 15.8 14.2 80 2.0 ESE 17 20 9 11 1023.1 - 0.0
01/03:30pm 18.3 17.4 14.9 80 2.0 SE 13 17 7 9 1023.4 - 0.0
01/03:00pm 18.2 16.9 14.7 80 2.0 SE 15 19 8 10 1023.3 1023.5 0.0
01/02:30pm 19.3 18.1 14.1 72 3.0 ESE 13 17 7 9 1023.2 - 0.0
01/02:00pm 19.7 18.7 12.2 62 4.2 ENE 9 11 5 6 1023.3 - 0.0
01/01:30pm 20.6 18.5 11.3 55 5.1 NE 13 17 7 9 1023.5 - 0.0
01/01:00pm 20.1 18.9 11.6 58 4.7 ENE 9 11 5 6 1023.4 - 0.0
01/12:30pm 19.6 18.4 11.6 60 4.4 ENE 9 13 5 7 1023.8 - 0.0
01/12:00pm 19.3 17.8 11.9 62 4.1 NE 11 15 6 8 1024.2 1024.4 0.0
01/11:30am 18.7 16.8 11.8 64 3.8 ENE 13 17 7 9 1024.3 - 0.0
01/11:00am 18.1 16.6 11.9 67 3.4 ENE 11 15 6 8 1024.6 - 0.0
01/10:30am 16.7 16.0 11.9 73 2.6 NE 7 11 4 6 1025.0 - 0.0
01/10:00am 15.9 15.1 11.0 72 2.6 E 6 7 3 4 1025.1 - 0.0
01/09:30am 14.9 13.8 10.7 76 2.2 E 7 9 4 5 1024.9 - 0.0
01/09:00am 12.7 11.7 10.2 85 1.3 NE 6 7 3 4 1024.9 1025.1 0.0
01/08:30am 10.0 8.1 9.0 93 0.5 NNE 9 11 5 6 1024.7 - 0.0
01/08:00am 8.0 7.4 7.4 96 0.3 CALM 0 9 0 5 1024.5 - 0.0
01/07:30am 7.7 7.0 7.1 96 0.3 CALM 0 0 0 0 1024.4 - 0.0
01/07:00am 7.6 6.9 6.9 95 0.3 CALM 0 0 0 0 1024.3 - 0.0
01/06:30am 7.6 6.9 6.9 95 0.3 CALM 0 0 0 0 1024.1 - 0.0
01/06:00am 7.1 5.0 6.7 97 0.2 N 7 9 4 5 1024.0 1024.2 0.0
01/05:30am 7.5 5.1 7.1 97 0.2 NNW 9 9 5 5 1023.7 - 0.0
01/05:00am 7.8 5.1 7.4 97 0.2 N 11 13 6 7 1023.3 - 0.0
01/04:30am 7.7 5.7 7.3 97 0.2 N 7 11 4 6 1023.2 - 0.0
01/04:00am 8.5 8.0 7.9 96 0.3 CALM 0 0 0 0 1023.5 - 0.0
01/03:30am 8.6 7.8 8.0 96 0.3 NNE 2 7 1 4 1023.4 - 0.0
01/03:00am 8.9 7.4 8.3 96 0.3 N 6 9 3 5 1023.7 1023.9 0.0
01/02:30am 9.3 7.7 8.0 92 0.6 NNW 6 7 3 4 1023.6 - 0.0
01/02:00am 9.7 9.1 8.9 95 0.4 W 2 6 1 3 1023.5 - 0.0
01/01:30am 9.4 9.0 8.4 93 0.5 CALM 0 0 0 0 1023.7 - 0.0
01/01:00am 9.8 9.2 8.8 93 0.5 NW 2 7 1 4 1023.6 - 0.0
01/12:30am 10.2 9.8 8.3 88 0.9 CALM 0 0 0 0 1023.3 - 0.0
01/12:00am 10.3 10.1 8.9 91 0.7 CALM 0 0 0 0 1023.5 1023.7 0.0
 
Date/Time
WST
Temp
°C
App
Temp
°C
Dew
Point
Rel
Hum
%
Delta-T
°C
Wind Press
QNH
hPa
Press
MSL
hPa
Rain
since 9 am
mm
Dir
 
Spd
km/h
Gust
km/h
Spd
kts
Gust
kts
30/11:30pm 10.4 8.8 8.8 90 0.8 N 7 11 4 6 1023.5 - 0.0
30/11:00pm 10.0 8.9 8.6 91 0.7 N 4 9 2 5 1023.4 - 0.0
30/10:30pm 9.9 8.3 8.7 92 0.6 NNW 7 9 4 5 1023.6 - 0.0
30/10:00pm 10.3 8.9 8.9 91 0.7 N 6 7 3 4 1023.4 - 0.0
30/09:30pm 11.4 10.0 9.0 85 1.2 NNW 6 6 3 3 1023.6 - 0.0
30/09:00pm 11.0 10.0 9.0 87 1.0 WNW 4 6 2 3 1023.3 1023.5 0.0
30/08:30pm 10.7 9.2 9.1 90 0.8 SW 7 7 4 4 1023.3 - 0.0
30/08:00pm 11.2 11.1 9.4 89 0.9 CALM 0 0 0 0 1022.9 - 0.0
30/07:30pm 11.4 10.6 9.8 90 0.8 W 4 7 2 4 1022.8 - 0.0
30/07:00pm 11.9 11.1 9.5 85 1.2 NNW 4 6 2 3 1022.5 - 0.0
30/06:30pm 12.4 12.0 9.6 83 1.4 NNW 2 6 1 3 1022.4 - 0.0
30/06:00pm 13.4 12.1 9.9 79 1.8 NNW 7 9 4 5 1022.4 1022.6 0.0
30/05:30pm 14.3 13.4 10.5 78 2.0 WNW 6 7 3 4 1021.8 - 0.0
30/05:00pm 14.4 13.0 11.0 80 1.8 NW 9 11 5 6 1022.3 - 0.0
30/04:30pm 15.7 14.0 9.7 67 3.1 NNW 9 11 5 6 1021.6 - 0.0
30/04:00pm 17.1 15.4 9.9 62 3.8 NNW 9 11 5 6 1021.5 - 0.0
30/03:30pm 18.0 15.4 7.8 51 5.2 NNW 11 15 6 8 1021.1 - 0.0
30/03:00pm 18.5 15.5 7.7 49 5.5 NNW 13 17 7 9 1020.9 1021.1 0.0
30/02:30pm 18.1 15.3 6.9 48 5.6 NNW 11 15 6 8 1020.8 - 0.0
30/02:00pm 17.5 14.2 6.3 47 5.5 N 13 15 7 8 1020.7 - 0.0
30/01:30pm 17.0 14.3 7.2 52 4.9 NNW 11 15 6 8 1021.1 - 0.0
30/01:00pm 17.9 15.3 7.9 52 5.1 NNW 11 15 6 8 1021.5 - 0.0
30/12:30pm 17.8 14.3 7.0 49 5.4 NNW 15 20 8 11 1022.1 - 0.0
30/12:00pm 16.4 15.1 9.2 62 3.7 N 6 7 3 4 1022.2 1022.4 0.0
30/11:30am 15.1 13.4 8.3 64 3.4 N 7 9 4 5 1022.7 - 0.0
30/11:00am 14.2 12.6 8.6 69 2.8 E 7 7 4 4 1023.1 - 0.0
30/10:30am 12.8 11.3 8.4 74 2.2 NE 6 7 3 4 1023.5 - 0.0
30/10:00am 10.9 10.7 9.1 89 0.9 CALM 0 0 0 0 1023.7 - 0.0
30/09:30am 9.5 9.1 8.3 92 0.6 CALM 0 0 0 0 1023.8 - 0.0
30/09:00am 8.5 8.0 7.9 96 0.3 CALM 0 0 0 0 1023.9 1024.1 0.0
30/08:30am 5.8 3.6 5.1 95 0.3 NNE 6 7 3 4 1023.8 - 0.0
30/08:00am 4.2 1.7 4.0 99 0.1 N 6 7 3 4 1023.9 - 0.0
30/07:30am 4.1 1.6 3.9 99 0.1 NNE 6 7 3 4 1023.8 - 0.0
30/07:00am 4.2 1.8 4.2 100 0.0 NNE 6 7 3 4 1023.7 - 0.0
30/06:30am 4.8 3.6 4.6 99 0.1 CALM 0 0 0 0 1023.7 - 0.0
30/06:00am 3.4 2.0 3.4 100 0.0 CALM 0 0 0 0 1023.4 1023.6 0.0
30/05:30am 3.2 1.0 3.2 100 0.0 NE 4 7 2 4 1023.2 - 0.0
30/05:00am 2.8 -0.4 2.8 100 0.0 NNE 9 11 5 6 1023.0 - 0.0
30/04:30am 4.8 2.5 4.6 99 0.1 W 6 7 3 4 1023.3 - 0.0
30/04:00am 4.1 2.8 3.9 99 0.1 CALM 0 0 0 0 1023.1 - 0.0
30/03:30am 4.6 3.3 4.1 97 0.2 CALM 0 0 0 0 1023.3 - 0.0
30/03:00am 4.4 3.1 4.2 99 0.1 CALM 0 0 0 0 1023.1 1023.3 0.0
30/02:30am 4.8 2.9 4.8 100 0.0 W 4 7 2 4 1023.5 - 0.0
30/02:00am 5.1 2.8 4.9 99 0.1 W 6 7 3 4 1023.4 - 0.0
30/01:30am 5.2 4.1 5.0 99 0.1 CALM 0 0 0 0 1023.5 - 0.0
30/01:22am 5.1 4.0 4.9 99 0.1 CALM 0 0 0 0 1023.4 - 0.0
30/01:01am 5.0 3.9 5.0 100 0.0 CALM 0 0 0 0 1023.4 - 0.0
30/01:00am 5.0 3.9 5.0 100 0.0 CALM 0 0 0 0 1023.4 - 0.0
30/12:30am 5.6 4.6 5.4 99 0.1 CALM 0 2 0 1 1023.4 - 0.0
30/12:29am 5.6 4.5 5.1 97 0.2 CALM 0 6 0 3 1023.5 - 0.0
30/12:00am 5.7 3.5 5.5 99 0.1 N 6 7 3 4 1023.6 1023.8 0.0
 
Date/Time
WST
Temp
°C
App
Temp
°C
Dew
Point
Rel
Hum
%
Delta-T
°C
Wind Press
QNH
hPa
Press
MSL
hPa
Rain
since 9 am
mm
Dir
 
Spd
km/h
Gust
km/h
Spd
kts
Gust
kts
29/11:54pm 5.4 3.6 5.4 100 0.0 N 4 9 2 5 1023.6 - 0.0
29/11:30pm 5.9 5.0 5.9 100 0.0 CALM 0 0 0 0 1024.0 - 0.0
29/11:14pm 6.5 5.7 6.3 99 0.1 CALM 0 0 0 0 1024.0 - 0.0
29/11:00pm 6.7 5.9 6.3 97 0.2 CALM 0 0 0 0 1024.1 - 0.0
29/10:57pm 6.6 5.8 6.4 99 0.1 CALM 0 0 0 0 1024.1 - 0.0
29/10:30pm 6.4 5.4 5.7 95 0.3 CALM 0 0 0 0 1024.3 - 0.0
29/10:00pm 6.4 4.8 6.2 99 0.1 NNW 4 6 2 3 1024.5 - 0.0
29/09:30pm 6.9 5.0 6.5 97 0.2 N 6 7 3 4 1024.5 - 0.0
29/09:00pm 7.3 5.3 6.9 97 0.2 N 7 9 4 5 1024.4 1024.6 0.0
29/08:30pm 8.2 7.4 8.0 99 0.1 NE 2 7 1 4 1024.6 - 0.0
29/08:00pm 8.2 7.6 7.3 94 0.4 CALM 0 0 0 0 1024.6 - 0.0
29/07:30pm 9.0 7.2 7.3 89 0.8 NE 6 7 3 4 1024.5 - 0.0
29/07:00pm 9.5 9.0 7.8 89 0.8 CALM 0 0 0 0 1024.4 - 0.0
29/06:30pm 8.9 7.0 7.6 91 0.6 N 7 7 4 4 1024.5 - 0.0
29/06:00pm 10.8 10.4 8.1 83 1.3 CALM 0 0 0 0 1024.4 1024.6 0.0
29/05:30pm 11.6 11.5 9.4 86 1.1 CALM 0 6 0 3 1024.4 - 0.0
29/05:00pm 12.5 12.1 9.7 83 1.4 NNW 2 6 1 3 1024.3 - 0.0
29/04:30pm 14.2 12.8 9.5 73 2.4 N 7 7 4 4 1024.1 - 0.0

Other Formats:

Comma delimited format used in spreadsheet applications
http://www.bom.gov.au/fwo/IDW60801/IDW60801.94802.axf

JavaScript Object Notation format (JSON) in row-major order
http://www.bom.gov.au/fwo/IDW60801/IDW60801.94802.json